sensor_id;sensor_type;location;lat;lon;timestamp;pressure;altitude;pressure_sealevel;temperature;humidity
43155;BME280;34212;51.018;13.586;2023-02-19T00:02:59;97747.63;;;9.20;94.70
43155;BME280;34212;51.018;13.586;2023-02-19T00:08:02;97738.00;;;9.19;93.56
43155;BME280;34212;51.018;13.586;2023-02-19T00:13:04;97733.84;;;9.17;93.93
43155;BME280;34212;51.018;13.586;2023-02-19T00:18:05;97733.31;;;9.21;93.89
43155;BME280;34212;51.018;13.586;2023-02-19T00:23:07;97731.31;;;9.23;93.78
43155;BME280;34212;51.018;13.586;2023-02-19T00:28:09;97729.69;;;9.22;94.57
43155;BME280;34212;51.018;13.586;2023-02-19T00:33:11;97732.34;;;9.22;93.86
43155;BME280;34212;51.018;13.586;2023-02-19T00:38:12;97739.19;;;9.17;94.36
43155;BME280;34212;51.018;13.586;2023-02-19T00:43:14;97729.03;;;9.12;93.58
43155;BME280;34212;51.018;13.586;2023-02-19T00:48:15;97711.63;;;9.10;93.14
43155;BME280;34212;51.018;13.586;2023-02-19T00:53:17;97716.59;;;9.05;93.11
43155;BME280;34212;51.018;13.586;2023-02-19T00:58:19;97706.66;;;8.98;93.50
43155;BME280;34212;51.018;13.586;2023-02-19T01:03:20;97698.84;;;8.97;93.70
43155;BME280;34212;51.018;13.586;2023-02-19T01:08:22;97704.47;;;9.02;94.13
43155;BME280;34212;51.018;13.586;2023-02-19T01:13:24;97684.50;;;9.06;94.16
43155;BME280;34212;51.018;13.586;2023-02-19T01:18:26;97675.34;;;9.09;94.32
43155;BME280;34212;51.018;13.586;2023-02-19T01:23:27;97672.34;;;9.12;94.30
43155;BME280;34212;51.018;13.586;2023-02-19T01:28:28;97662.59;;;9.04;94.75
43155;BME280;34212;51.018;13.586;2023-02-19T01:33:30;97655.28;;;8.98;95.17
43155;BME280;34212;51.018;13.586;2023-02-19T01:38:32;97640.66;;;8.94;95.38
43155;BME280;34212;51.018;13.586;2023-02-19T01:43:52;97621.41;;;8.92;95.60
43155;BME280;34212;51.018;13.586;2023-02-19T01:48:57;97621.09;;;8.87;95.26
43155;BME280;34212;51.018;13.586;2023-02-19T01:54:01;97620.81;;;8.82;95.63
43155;BME280;34212;51.018;13.586;2023-02-19T01:59:05;97623.81;;;8.78;96.11
43155;BME280;34212;51.018;13.586;2023-02-19T02:04:08;97621.66;;;8.74;96.20
43155;BME280;34212;51.018;13.586;2023-02-19T02:09:11;97607.53;;;8.73;96.12
43155;BME280;34212;51.018;13.586;2023-02-19T02:14:36;97609.72;;;8.70;95.83
43155;BME280;34212;51.018;13.586;2023-02-19T02:25:11;97594.94;;;8.67;97.30
43155;BME280;34212;51.018;13.586;2023-02-19T02:30:24;97592.44;;;8.66;96.90
43155;BME280;34212;51.018;13.586;2023-02-19T02:35:34;97583.00;;;8.63;98.01
43155;BME280;34212;51.018;13.586;2023-02-19T02:40:41;97575.03;;;8.63;97.18
43155;BME280;34212;51.018;13.586;2023-02-19T02:45:44;97582.69;;;8.58;98.50
43155;BME280;34212;51.018;13.586;2023-02-19T02:51:18;97578.59;;;8.47;99.17
43155;BME280;34212;51.018;13.586;2023-02-19T02:56:27;97551.84;;;8.41;99.30
43155;BME280;34212;51.018;13.586;2023-02-19T03:01:44;97536.41;;;8.36;99.33
43155;BME280;34212;51.018;13.586;2023-02-19T03:07:08;97530.75;;;8.31;100.00
43155;BME280;34212;51.018;13.586;2023-02-19T03:12:13;97535.59;;;8.27;99.45
43155;BME280;34212;51.018;13.586;2023-02-19T03:17:39;97529.59;;;8.25;99.33
43155;BME280;34212;51.018;13.586;2023-02-19T03:23:01;97524.97;;;8.19;99.66
43155;BME280;34212;51.018;13.586;2023-02-19T03:28:07;97511.88;;;8.18;99.84
43155;BME280;34212;51.018;13.586;2023-02-19T03:33:13;97505.28;;;8.05;99.44
43155;BME280;34212;51.018;13.586;2023-02-19T03:38:31;97507.81;;;7.99;99.43
43155;BME280;34212;51.018;13.586;2023-02-19T04:04:37;97470.97;;;7.96;100.00
43155;BME280;34212;51.018;13.586;2023-02-19T04:09:46;97466.63;;;8.03;100.00
43155;BME280;34212;51.018;13.586;2023-02-19T04:14:57;97468.25;;;8.12;100.00
43155;BME280;34212;51.018;13.586;2023-02-19T04:20:02;97459.59;;;8.18;100.00
43155;BME280;34212;51.018;13.586;2023-02-19T04:25:06;97462.25;;;8.18;99.75
43155;BME280;34212;51.018;13.586;2023-02-19T04:30:10;97466.91;;;8.16;100.00
43155;BME280;34212;51.018;13.586;2023-02-19T04:35:12;97449.84;;;8.10;100.00
43155;BME280;34212;51.018;13.586;2023-02-19T04:40:13;97436.69;;;8.17;100.00
43155;BME280;34212;51.018;13.586;2023-02-19T04:45:15;97433.16;;;8.25;100.00
43155;BME280;34212;51.018;13.586;2023-02-19T04:50:16;97429.28;;;8.36;100.00
43155;BME280;34212;51.018;13.586;2023-02-19T04:55:18;97425.31;;;8.40;100.00
43155;BME280;34212;51.018;13.586;2023-02-19T05:00:20;97413.50;;;8.42;99.72
43155;BME280;34212;51.018;13.586;2023-02-19T05:05:21;97432.75;;;8.44;100.00
43155;BME280;34212;51.018;13.586;2023-02-19T05:10:23;97424.94;;;8.43;100.00
43155;BME280;34212;51.018;13.586;2023-02-19T05:15:24;97442.38;;;8.37;99.64
43155;BME280;34212;51.018;13.586;2023-02-19T05:20:25;97465.16;;;8.31;100.00
43155;BME280;34212;51.018;13.586;2023-02-19T05:25:27;97453.94;;;8.21;100.00
43155;BME280;34212;51.018;13.586;2023-02-19T05:30:28;97441.19;;;8.17;100.00
43155;BME280;34212;51.018;13.586;2023-02-19T05:35:30;97470.56;;;8.15;100.00
43155;BME280;34212;51.018;13.586;2023-02-19T05:40:31;97471.25;;;8.09;100.00
43155;BME280;34212;51.018;13.586;2023-02-19T05:45:34;97501.81;;;7.97;100.00
43155;BME280;34212;51.018;13.586;2023-02-19T05:50:36;97477.31;;;7.86;100.00
43155;BME280;34212;51.018;13.586;2023-02-19T05:55:45;97498.88;;;7.83;100.00
43155;BME280;34212;51.018;13.586;2023-02-19T06:00:47;97503.19;;;7.84;100.00
43155;BME280;34212;51.018;13.586;2023-02-19T06:05:48;97515.16;;;7.89;100.00
43155;BME280;34212;51.018;13.586;2023-02-19T06:10:50;97500.84;;;7.90;100.00
43155;BME280;34212;51.018;13.586;2023-02-19T06:15:51;97525.91;;;7.87;100.00
43155;BME280;34212;51.018;13.586;2023-02-19T06:20:53;97526.09;;;7.85;100.00
43155;BME280;34212;51.018;13.586;2023-02-19T06:25:54;97522.25;;;7.88;100.00
43155;BME280;34212;51.018;13.586;2023-02-19T06:31:05;97535.38;;;7.90;100.00
43155;BME280;34212;51.018;13.586;2023-02-19T06:36:11;97522.94;;;7.90;100.00
43155;BME280;34212;51.018;13.586;2023-02-19T06:41:13;97536.38;;;7.89;100.00
43155;BME280;34212;51.018;13.586;2023-02-19T06:46:15;97543.88;;;7.85;100.00
43155;BME280;34212;51.018;13.586;2023-02-19T06:51:18;97533.06;;;7.78;100.00
43155;BME280;34212;51.018;13.586;2023-02-19T06:56:23;97538.56;;;7.77;100.00
43155;BME280;34212;51.018;13.586;2023-02-19T07:01:26;97542.03;;;7.77;100.00
43155;BME280;34212;51.018;13.586;2023-02-19T07:06:29;97549.84;;;7.79;100.00
43155;BME280;34212;51.018;13.586;2023-02-19T07:11:33;97552.31;;;7.80;100.00
43155;BME280;34212;51.018;13.586;2023-02-19T07:16:35;97585.16;;;7.87;100.00
43155;BME280;34212;51.018;13.586;2023-02-19T07:21:37;97580.84;;;7.95;100.00
43155;BME280;34212;51.018;13.586;2023-02-19T07:26:38;97576.84;;;7.99;100.00
43155;BME280;34212;51.018;13.586;2023-02-19T07:31:40;97600.91;;;8.05;100.00
43155;BME280;34212;51.018;13.586;2023-02-19T07:36:41;97595.44;;;8.07;100.00
43155;BME280;34212;51.018;13.586;2023-02-19T07:41:43;97621.66;;;8.02;100.00
43155;BME280;34212;51.018;13.586;2023-02-19T07:46:55;97640.28;;;7.85;99.72
43155;BME280;34212;51.018;13.586;2023-02-19T07:51:56;97660.00;;;7.75;99.35
43155;BME280;34212;51.018;13.586;2023-02-19T07:56:57;97664.97;;;7.61;99.48
43155;BME280;34212;51.018;13.586;2023-02-19T08:02:00;97685.03;;;7.48;98.87
43155;BME280;34212;51.018;13.586;2023-02-19T08:07:19;97678.34;;;7.27;98.79
43155;BME280;34212;51.018;13.586;2023-02-19T08:12:21;97691.06;;;7.15;98.06
43155;BME280;34212;51.018;13.586;2023-02-19T08:17:41;97709.81;;;7.14;98.75
43155;BME280;34212;51.018;13.586;2023-02-19T08:22:42;97724.53;;;7.08;98.50
43155;BME280;34212;51.018;13.586;2023-02-19T08:27:44;97731.16;;;7.04;98.24
43155;BME280;34212;51.018;13.586;2023-02-19T08:32:46;97758.94;;;6.92;97.55
43155;BME280;34212;51.018;13.586;2023-02-19T08:37:48;97764.34;;;6.82;97.47
43155;BME280;34212;51.018;13.586;2023-02-19T08:42:49;97785.63;;;6.72;97.09
43155;BME280;34212;51.018;13.586;2023-02-19T08:47:51;97797.72;;;6.67;97.88
43155;BME280;34212;51.018;13.586;2023-02-19T08:52:52;97821.34;;;6.60;97.01
43155;BME280;34212;51.018;13.586;2023-02-19T08:57:54;97840.53;;;6.54;97.27
43155;BME280;34212;51.018;13.586;2023-02-19T09:02:57;97857.16;;;6.46;97.18
43155;BME280;34212;51.018;13.586;2023-02-19T09:07:59;97874.16;;;6.36;96.85
43155;BME280;34212;51.018;13.586;2023-02-19T09:13:00;97874.13;;;6.18;96.55
43155;BME280;34212;51.018;13.586;2023-02-19T09:18:03;97895.28;;;6.00;96.18
43155;BME280;34212;51.018;13.586;2023-02-19T09:23:05;97909.84;;;5.86;97.09
43155;BME280;34212;51.018;13.586;2023-02-19T09:28:08;97909.03;;;5.76;96.46
43155;BME280;34212;51.018;13.586;2023-02-19T09:33:11;97947.66;;;5.69;96.18
43155;BME280;34212;51.018;13.586;2023-02-19T09:38:13;97966.03;;;5.61;96.74
43155;BME280;34212;51.018;13.586;2023-02-19T09:43:18;97967.34;;;5.47;95.47
43155;BME280;34212;51.018;13.586;2023-02-19T09:48:20;97983.22;;;5.47;96.83
43155;BME280;34212;51.018;13.586;2023-02-19T09:53:25;97994.63;;;5.47;96.13
43155;BME280;34212;51.018;13.586;2023-02-19T09:58:43;98008.97;;;5.45;96.64
43155;BME280;34212;51.018;13.586;2023-02-19T10:03:47;98027.50;;;5.54;97.14
43155;BME280;34212;51.018;13.586;2023-02-19T10:08:54;98030.25;;;5.63;97.40
43155;BME280;34212;51.018;13.586;2023-02-19T10:14:04;98032.56;;;5.75;97.85
43155;BME280;34212;51.018;13.586;2023-02-19T10:19:12;98051.94;;;5.76;96.71
43155;BME280;34212;51.018;13.586;2023-02-19T10:24:19;98059.06;;;5.66;98.10
43155;BME280;34212;51.018;13.586;2023-02-19T10:29:22;98058.94;;;5.57;98.01
43155;BME280;34212;51.018;13.586;2023-02-19T10:34:25;98070.94;;;5.62;98.57
43155;BME280;34212;51.018;13.586;2023-02-19T10:39:55;98070.13;;;5.51;97.91
43155;BME280;34212;51.018;13.586;2023-02-19T10:44:59;98084.72;;;5.46;98.33
43155;BME280;34212;51.018;13.586;2023-02-19T10:50:03;98093.22;;;5.49;97.68
43155;BME280;34212;51.018;13.586;2023-02-19T10:55:29;98087.78;;;5.51;97.19
43155;BME280;34212;51.018;13.586;2023-02-19T11:00:32;98096.28;;;5.54;97.82
43155;BME280;34212;51.018;13.586;2023-02-19T11:05:35;98104.34;;;5.63;97.21
43155;BME280;34212;51.018;13.586;2023-02-19T11:10:41;98114.22;;;5.61;97.13
43155;BME280;34212;51.018;13.586;2023-02-19T11:15:50;98116.47;;;5.55;96.50
43155;BME280;34212;51.018;13.586;2023-02-19T11:26:05;98142.50;;;5.60;97.42
43155;BME280;34212;51.018;13.586;2023-02-19T11:36:40;98149.19;;;5.54;95.85
43155;BME280;34212;51.018;13.586;2023-02-19T11:47:49;98167.00;;;5.52;96.88
43155;BME280;34212;51.018;13.586;2023-02-19T11:53:12;98163.94;;;5.38;96.34
43155;BME280;34212;51.018;13.586;2023-02-19T12:25:30;98202.66;;;5.68;97.53
43155;BME280;34212;51.018;13.586;2023-02-19T12:46:59;98192.91;;;5.39;96.37
43155;BME280;34212;51.018;13.586;2023-02-19T12:52:21;98193.47;;;5.52;96.65
43155;BME280;34212;51.018;13.586;2023-02-19T12:57:32;98206.53;;;5.54;95.77
43155;BME280;34212;51.018;13.586;2023-02-19T13:02:50;98210.72;;;5.56;95.97
43155;BME280;34212;51.018;13.586;2023-02-19T13:13:56;98221.31;;;5.76;96.81
43155;BME280;34212;51.018;13.586;2023-02-19T13:18:38;98228.03;;;5.80;95.36
43155;BME280;34212;51.018;13.586;2023-02-19T13:23:41;98232.72;;;5.67;94.71
43155;BME280;34212;51.018;13.586;2023-02-19T13:39:51;98250.94;;;7.50;100.00
43155;BME280;34212;51.018;13.586;2023-02-19T13:44:54;98257.91;;;8.22;95.41
43155;BME280;34212;51.018;13.586;2023-02-19T13:50:05;98236.56;;;7.70;90.81
43155;BME280;34212;51.018;13.586;2023-02-19T14:00:49;98244.56;;;6.87;91.68
43155;BME280;34212;51.018;13.586;2023-02-19T14:06:07;98254.75;;;6.45;92.77
43155;BME280;34212;51.018;13.586;2023-02-19T14:11:08;98257.66;;;6.32;93.67
43155;BME280;34212;51.018;13.586;2023-02-19T14:21:39;98278.19;;;6.01;93.25
43155;BME280;34212;51.018;13.586;2023-02-19T14:26:43;98261.72;;;5.78;93.36
43155;BME280;34212;51.018;13.586;2023-02-19T14:31:45;98269.81;;;5.86;94.79
43155;BME280;34212;51.018;13.586;2023-02-19T14:36:49;98276.53;;;6.00;95.14
43155;BME280;34212;51.018;13.586;2023-02-19T14:41:56;98283.50;;;6.11;94.61
43155;BME280;34212;51.018;13.586;2023-02-19T14:47:03;98288.75;;;5.91;93.24
43155;BME280;34212;51.018;13.586;2023-02-19T14:52:10;98295.41;;;5.76;93.11
43155;BME280;34212;51.018;13.586;2023-02-19T14:57:28;98304.06;;;5.78;92.94
43155;BME280;34212;51.018;13.586;2023-02-19T15:02:31;98305.44;;;5.82;92.78
43155;BME280;34212;51.018;13.586;2023-02-19T15:07:32;98316.56;;;5.56;91.45
43155;BME280;34212;51.018;13.586;2023-02-19T15:13:02;98329.03;;;5.35;91.16
43155;BME280;34212;51.018;13.586;2023-02-19T15:18:03;98324.81;;;5.23;92.08
43155;BME280;34212;51.018;13.586;2023-02-19T15:23:06;98330.09;;;5.23;92.43
43155;BME280;34212;51.018;13.586;2023-02-19T15:28:32;98327.91;;;5.28;92.64
43155;BME280;34212;51.018;13.586;2023-02-19T15:33:34;98329.06;;;5.45;93.42
43155;BME280;34212;51.018;13.586;2023-02-19T15:38:36;98325.47;;;5.55;93.28
43155;BME280;34212;51.018;13.586;2023-02-19T15:43:44;98332.59;;;5.55;92.07
43155;BME280;34212;51.018;13.586;2023-02-19T15:54:06;98346.84;;;5.33;91.16
43155;BME280;34212;51.018;13.586;2023-02-19T15:59:23;98348.44;;;5.15;91.19
43155;BME280;34212;51.018;13.586;2023-02-19T16:04:32;98343.22;;;5.03;91.43
43155;BME280;34212;51.018;13.586;2023-02-19T16:09:38;98360.84;;;4.93;91.33
43155;BME280;34212;51.018;13.586;2023-02-19T16:14:40;98359.72;;;4.86;91.84
43155;BME280;34212;51.018;13.586;2023-02-19T16:24:45;98357.97;;;4.75;92.06
43155;BME280;34212;51.018;13.586;2023-02-19T16:29:49;98356.25;;;4.65;91.38
43155;BME280;34212;51.018;13.586;2023-02-19T16:34:51;98364.47;;;4.50;91.13
43155;BME280;34212;51.018;13.586;2023-02-19T16:45:07;98397.94;;;4.29;91.74
43155;BME280;34212;51.018;13.586;2023-02-19T16:50:14;98405.41;;;4.24;91.66
43155;BME280;34212;51.018;13.586;2023-02-19T16:55:16;98418.63;;;4.24;91.79
43155;BME280;34212;51.018;13.586;2023-02-19T17:00:26;98422.44;;;4.20;90.85
43155;BME280;34212;51.018;13.586;2023-02-19T17:05:29;98442.50;;;4.11;91.55
43155;BME280;34212;51.018;13.586;2023-02-19T17:10:32;98449.13;;;4.05;91.46
43155;BME280;34212;51.018;13.586;2023-02-19T17:15:34;98473.50;;;3.98;91.32
43155;BME280;34212;51.018;13.586;2023-02-19T17:20:35;98472.53;;;3.87;90.71
43155;BME280;34212;51.018;13.586;2023-02-19T17:25:37;98474.09;;;3.79;91.63
43155;BME280;34212;51.018;13.586;2023-02-19T17:30:38;98470.97;;;3.74;91.29
43155;BME280;34212;51.018;13.586;2023-02-19T17:35:40;98482.25;;;3.64;90.90
43155;BME280;34212;51.018;13.586;2023-02-19T17:40:44;98483.69;;;3.57;91.37
43155;BME280;34212;51.018;13.586;2023-02-19T17:45:46;98493.78;;;3.52;91.32
43155;BME280;34212;51.018;13.586;2023-02-19T17:50:47;98502.88;;;3.48;91.69
43155;BME280;34212;51.018;13.586;2023-02-19T17:55:50;98498.66;;;3.45;91.82
43155;BME280;34212;51.018;13.586;2023-02-19T18:00:52;98509.22;;;3.45;91.91
43155;BME280;34212;51.018;13.586;2023-02-19T18:05:53;98508.50;;;3.43;91.25
43155;BME280;34212;51.018;13.586;2023-02-19T18:10:55;98505.03;;;3.43;91.65
43155;BME280;34212;51.018;13.586;2023-02-19T18:15:56;98518.91;;;3.45;91.32
43155;BME280;34212;51.018;13.586;2023-02-19T18:20:58;98529.25;;;3.48;91.52
43155;BME280;34212;51.018;13.586;2023-02-19T18:25:59;98525.44;;;3.52;91.04
43155;BME280;34212;51.018;13.586;2023-02-19T18:31:01;98532.59;;;3.61;91.12
43155;BME280;34212;51.018;13.586;2023-02-19T18:36:03;98534.78;;;3.67;91.45
43155;BME280;34212;51.018;13.586;2023-02-19T18:41:11;98540.53;;;3.73;91.24
43155;BME280;34212;51.018;13.586;2023-02-19T18:46:13;98543.78;;;3.76;91.24
43155;BME280;34212;51.018;13.586;2023-02-19T18:51:15;98547.16;;;3.78;90.56
43155;BME280;34212;51.018;13.586;2023-02-19T18:56:16;98545.59;;;3.76;90.54
43155;BME280;34212;51.018;13.586;2023-02-19T19:01:18;98555.53;;;3.72;91.01
43155;BME280;34212;51.018;13.586;2023-02-19T19:06:20;98550.84;;;3.76;90.82
43155;BME280;34212;51.018;13.586;2023-02-19T19:11:21;98550.38;;;3.70;90.84
43155;BME280;34212;51.018;13.586;2023-02-19T19:16:24;98536.22;;;3.60;91.48
43155;BME280;34212;51.018;13.586;2023-02-19T19:21:41;98541.03;;;3.55;91.24
43155;BME280;34212;51.018;13.586;2023-02-19T19:26:44;98554.91;;;3.46;91.83
43155;BME280;34212;51.018;13.586;2023-02-19T19:31:47;98559.22;;;3.47;91.96
43155;BME280;34212;51.018;13.586;2023-02-19T19:36:49;98544.59;;;3.54;91.92
43155;BME280;34212;51.018;13.586;2023-02-19T19:41:54;98545.94;;;3.60;91.10
43155;BME280;34212;51.018;13.586;2023-02-19T19:46:56;98558.03;;;3.62;90.63
43155;BME280;34212;51.018;13.586;2023-02-19T19:51:58;98564.25;;;3.61;90.52
43155;BME280;34212;51.018;13.586;2023-02-19T19:57:01;98559.47;;;3.55;91.40
43155;BME280;34212;51.018;13.586;2023-02-19T20:02:04;98557.53;;;3.57;90.76
43155;BME280;34212;51.018;13.586;2023-02-19T20:07:06;98562.44;;;3.51;90.26
43155;BME280;34212;51.018;13.586;2023-02-19T20:12:07;98550.56;;;3.45;90.11
43155;BME280;34212;51.018;13.586;2023-02-19T20:17:09;98554.16;;;3.44;89.91
43155;BME280;34212;51.018;13.586;2023-02-19T20:22:11;98548.06;;;3.43;90.56
43155;BME280;34212;51.018;13.586;2023-02-19T20:27:14;98549.88;;;3.43;90.34
43155;BME280;34212;51.018;13.586;2023-02-19T20:32:16;98541.31;;;3.39;89.31
43155;BME280;34212;51.018;13.586;2023-02-19T20:37:19;98540.84;;;3.34;88.69
43155;BME280;34212;51.018;13.586;2023-02-19T20:42:20;98540.94;;;3.33;89.01
43155;BME280;34212;51.018;13.586;2023-02-19T20:47:22;98552.19;;;3.23;88.54
43155;BME280;34212;51.018;13.586;2023-02-19T20:52:24;98556.47;;;3.13;87.92
43155;BME280;34212;51.018;13.586;2023-02-19T20:57:26;98564.09;;;3.05;87.89
43155;BME280;34212;51.018;13.586;2023-02-19T21:02:29;98569.06;;;3.10;89.51
43155;BME280;34212;51.018;13.586;2023-02-19T21:07:31;98586.97;;;3.29;90.73
43155;BME280;34212;51.018;13.586;2023-02-19T21:12:34;98586.50;;;3.35;89.57
43155;BME280;34212;51.018;13.586;2023-02-19T21:17:36;98577.88;;;3.33;89.27
43155;BME280;34212;51.018;13.586;2023-02-19T21:22:38;98598.47;;;3.28;88.65
43155;BME280;34212;51.018;13.586;2023-02-19T21:27:40;98602.50;;;3.20;88.30
43155;BME280;34212;51.018;13.586;2023-02-19T21:32:41;98602.72;;;3.17;88.54
43155;BME280;34212;51.018;13.586;2023-02-19T21:37:43;98605.59;;;3.14;88.67
43155;BME280;34212;51.018;13.586;2023-02-19T21:42:44;98610.78;;;3.16;89.23
43155;BME280;34212;51.018;13.586;2023-02-19T21:47:46;98613.78;;;3.22;89.35
43155;BME280;34212;51.018;13.586;2023-02-19T21:52:48;98614.53;;;3.36;90.51
43155;BME280;34212;51.018;13.586;2023-02-19T21:57:50;98607.66;;;3.57;90.88
43155;BME280;34212;51.018;13.586;2023-02-19T22:02:51;98603.13;;;3.70;90.60
43155;BME280;34212;51.018;13.586;2023-02-19T22:07:52;98602.19;;;3.83;90.61
43155;BME280;34212;51.018;13.586;2023-02-19T22:12:54;98596.19;;;3.92;91.07
43155;BME280;34212;51.018;13.586;2023-02-19T22:17:55;98593.59;;;4.03;90.89
43155;BME280;34212;51.018;13.586;2023-02-19T22:22:57;98573.91;;;4.07;91.05
43155;BME280;34212;51.018;13.586;2023-02-19T22:27:59;98570.56;;;4.05;90.25
43155;BME280;34212;51.018;13.586;2023-02-19T22:33:00;98562.38;;;3.97;89.68
43155;BME280;34212;51.018;13.586;2023-02-19T22:38:02;98568.38;;;3.88;89.23
43155;BME280;34212;51.018;13.586;2023-02-19T22:43:03;98576.03;;;3.80;89.67
43155;BME280;34212;51.018;13.586;2023-02-19T22:48:05;98577.63;;;3.93;90.77
43155;BME280;34212;51.018;13.586;2023-02-19T22:53:06;98588.78;;;4.08;91.74
43155;BME280;34212;51.018;13.586;2023-02-19T22:58:08;98576.41;;;4.20;91.81
43155;BME280;34212;51.018;13.586;2023-02-19T23:03:09;98568.59;;;4.30;92.01
43155;BME280;34212;51.018;13.586;2023-02-19T23:08:11;98563.44;;;4.39;92.14
43155;BME280;34212;51.018;13.586;2023-02-19T23:13:12;98540.97;;;4.45;92.17
43155;BME280;34212;51.018;13.586;2023-02-19T23:18:13;98538.81;;;4.50;91.89
43155;BME280;34212;51.018;13.586;2023-02-19T23:23:15;98529.78;;;4.53;92.09
43155;BME280;34212;51.018;13.586;2023-02-19T23:28:16;98522.22;;;4.59;92.20
43155;BME280;34212;51.018;13.586;2023-02-19T23:33:18;98511.97;;;4.66;92.81
43155;BME280;34212;51.018;13.586;2023-02-19T23:38:19;98527.56;;;4.69;92.70
43155;BME280;34212;51.018;13.586;2023-02-19T23:43:21;98516.03;;;4.70;92.29
43155;BME280;34212;51.018;13.586;2023-02-19T23:48:22;98507.75;;;4.75;92.54
43155;BME280;34212;51.018;13.586;2023-02-19T23:53:23;98504.34;;;4.84;92.73
43155;BME280;34212;51.018;13.586;2023-02-19T23:58:25;98496.88;;;4.89;92.63
